OIZJ  Jask  Airport

Jask, Iran

Add Bookmark
ICAO OIZJ
Type Airport
Status Operational
Latitude
25° 39' 12" N
25.653601
Longitude
57° 47' 57" E
57.799301
Local (DST + 5) UTC (GMT + 4)
Feb 10, 2016 09:04 Feb 10, 2016 17:34
Sunrise-Sunset Local UTC
Begin Civil Twilight 05:52 02:22
Sunrise 06:16 02:46
Sunset 05:29 13:59
End Civil Twilight 05:53 14:23
VFR
VFR
MVFR
MVFR
IFR
IFR
LIFR
LIFR
Unknown
Unavailable

Current Weather

METAR Observed MVFR
OIZJ 101700Z 31006KT 6000 NSC 22/12 Q1016 Wed, Feb 10, 2016 @ 17:00 UTC
(34 Minutes ago)
Marginal Visual Flight Rules
Wind Visibility Conditions
310° at 6 knots (11 kph) 6,003 m
  • No significant weather
Temperatures Readings Precipitation
Current Temp
22°C
72°F
Dewpoint
12°C
54°F
Humidity 53%
Altimeter 30" Hg
Sea Level Pressure 1,016 mb
Field Elevation
4 m
13 ft
None Recorded
-
-

CheckWX.com is intended as a tool to help pilots better visualize weather data. It is not intended as a substitute for an official weather briefing obtained from a Flight Service Station. CheckWX.com does not meet the FAA requirements for an official pre-flight weather briefing. Therefore, it's important that pilots still call and obtain an official FSS pre-flight weather briefing.

© 2007-2016 CheckWX.com
17:34:46 UTC